Terminal Aerodrome Forecast
Issued by NWS Bismarck, ND

Home | Current Version | Previous Version | Text Only | Print | Product List | Glossary On
Versions: 1 2 3 4 5 6 7 8 9 10 11 12 13 14 15
522
FTUS43 KBIS 241129
TAFBIS
TAF
KBIS 241129Z 2412/2512 31010KT P6SM SCT020
     FM241400 32015G23KT P6SM BKN020
     FM241700 32018G25KT P6SM BKN035
     FM242000 33019G27KT P6SM SCT050
     FM250200 35011KT P6SM FEW050
     FM251000 30005KT P6SM BKN070 BKN150=

USA.gov is the U.S. government's official web portal to all federal, state and local government web resources and services.